sensor_id;sensor_type;location;lat;lon;timestamp;pressure;altitude;pressure_sealevel;temperature;humidity
41334;BME280;27078;46.428;6.256;2024-01-16T00:01:15;95910.28;;;-0.21;58.89
41334;BME280;27078;46.428;6.256;2024-01-16T00:03:41;95899.13;;;-0.19;59.23
41334;BME280;27078;46.428;6.256;2024-01-16T00:06:07;95902.59;;;-0.24;59.12
41334;BME280;27078;46.428;6.256;2024-01-16T00:08:33;95902.69;;;-0.19;59.11
41334;BME280;27078;46.428;6.256;2024-01-16T00:10:58;95900.47;;;-0.22;59.24
41334;BME280;27078;46.428;6.256;2024-01-16T00:13:23;95891.78;;;-0.19;59.22
41334;BME280;27078;46.428;6.256;2024-01-16T00:15:50;95907.88;;;-0.17;59.20
41334;BME280;27078;46.428;6.256;2024-01-16T00:18:15;95906.81;;;-0.16;59.21
41334;BME280;27078;46.428;6.256;2024-01-16T00:20:41;95896.63;;;-0.21;59.49
41334;BME280;27078;46.428;6.256;2024-01-16T00:23:06;95896.09;;;-0.23;58.87
41334;BME280;27078;46.428;6.256;2024-01-16T00:25:32;95904.47;;;-0.30;59.38
41334;BME280;27078;46.428;6.256;2024-01-16T00:27:57;95908.56;;;-0.27;59.67
41334;BME280;27078;46.428;6.256;2024-01-16T00:30:22;95903.69;;;-0.25;59.46
41334;BME280;27078;46.428;6.256;2024-01-16T00:32:48;95915.41;;;-0.25;59.80
41334;BME280;27078;46.428;6.256;2024-01-16T00:35:13;95917.41;;;-0.20;59.66
41334;BME280;27078;46.428;6.256;2024-01-16T00:37:39;95916.03;;;-0.17;59.56
41334;BME280;27078;46.428;6.256;2024-01-16T00:40:05;95915.81;;;-0.16;59.31
41334;BME280;27078;46.428;6.256;2024-01-16T00:42:31;95904.94;;;-0.11;59.89
41334;BME280;27078;46.428;6.256;2024-01-16T00:44:57;95898.94;;;-0.13;59.89
41334;BME280;27078;46.428;6.256;2024-01-16T00:47:22;95905.25;;;-0.07;59.89
41334;BME280;27078;46.428;6.256;2024-01-16T00:49:48;95895.22;;;-0.02;60.14
41334;BME280;27078;46.428;6.256;2024-01-16T00:52:13;95891.47;;;0.05;60.07
41334;BME280;27078;46.428;6.256;2024-01-16T00:54:39;95892.88;;;0.07;60.44
41334;BME280;27078;46.428;6.256;2024-01-16T00:57:05;95886.91;;;0.10;60.28
41334;BME280;27078;46.428;6.256;2024-01-16T00:59:30;95892.09;;;0.12;60.37
41334;BME280;27078;46.428;6.256;2024-01-16T01:01:56;95901.09;;;0.12;60.67
41334;BME280;27078;46.428;6.256;2024-01-16T01:04:21;95899.72;;;0.10;60.46
41334;BME280;27078;46.428;6.256;2024-01-16T01:06:46;95896.97;;;0.10;61.12
41334;BME280;27078;46.428;6.256;2024-01-16T01:09:12;95902.19;;;0.11;61.11
41334;BME280;27078;46.428;6.256;2024-01-16T01:11:38;95904.09;;;0.11;61.33
41334;BME280;27078;46.428;6.256;2024-01-16T01:14:04;95897.25;;;0.08;61.59
41334;BME280;27078;46.428;6.256;2024-01-16T01:16:29;95897.75;;;0.05;61.97
41334;BME280;27078;46.428;6.256;2024-01-16T01:18:54;95899.09;;;0.03;62.47
41334;BME280;27078;46.428;6.256;2024-01-16T01:21:20;95896.31;;;-0.03;61.97
41334;BME280;27078;46.428;6.256;2024-01-16T01:23:45;95890.56;;;-0.06;62.35
41334;BME280;27078;46.428;6.256;2024-01-16T01:26:11;95893.72;;;-0.14;62.19
41334;BME280;27078;46.428;6.256;2024-01-16T01:28:39;95893.72;;;-0.14;62.48
41334;BME280;27078;46.428;6.256;2024-01-16T01:31:05;95893.91;;;-0.21;62.51
41334;BME280;27078;46.428;6.256;2024-01-16T01:33:30;95897.16;;;-0.24;62.49
41334;BME280;27078;46.428;6.256;2024-01-16T01:35:56;95904.00;;;-0.21;62.60
41334;BME280;27078;46.428;6.256;2024-01-16T01:38:21;95903.44;;;-0.23;62.62
41334;BME280;27078;46.428;6.256;2024-01-16T01:40:46;95912.97;;;-0.26;62.64
41334;BME280;27078;46.428;6.256;2024-01-16T01:43:19;95908.31;;;-0.26;62.35
41334;BME280;27078;46.428;6.256;2024-01-16T01:45:48;95909.41;;;-0.27;62.77
41334;BME280;27078;46.428;6.256;2024-01-16T01:48:21;95909.66;;;-0.28;62.57
41334;BME280;27078;46.428;6.256;2024-01-16T01:50:47;95911.16;;;-0.37;63.11
41334;BME280;27078;46.428;6.256;2024-01-16T01:53:13;95910.53;;;-0.44;63.22
41334;BME280;27078;46.428;6.256;2024-01-16T01:55:38;95911.63;;;-0.45;63.13
41334;BME280;27078;46.428;6.256;2024-01-16T01:58:04;95917.03;;;-0.51;63.29
41334;BME280;27078;46.428;6.256;2024-01-16T02:00:30;95909.56;;;-0.55;63.50
41334;BME280;27078;46.428;6.256;2024-01-16T02:02:56;95922.47;;;-0.51;63.58
41334;BME280;27078;46.428;6.256;2024-01-16T02:05:22;95925.69;;;-0.54;63.58
41334;BME280;27078;46.428;6.256;2024-01-16T02:07:47;95923.72;;;-0.58;63.82
41334;BME280;27078;46.428;6.256;2024-01-16T02:10:12;95921.81;;;-0.58;63.04
41334;BME280;27078;46.428;6.256;2024-01-16T02:12:39;95915.28;;;-0.57;63.31
41334;BME280;27078;46.428;6.256;2024-01-16T02:15:04;95916.44;;;-0.53;63.83
41334;BME280;27078;46.428;6.256;2024-01-16T02:17:30;95914.78;;;-0.54;63.41
41334;BME280;27078;46.428;6.256;2024-01-16T02:19:55;95918.56;;;-0.55;63.47
41334;BME280;27078;46.428;6.256;2024-01-16T02:22:25;95924.84;;;-0.54;63.87
41334;BME280;27078;46.428;6.256;2024-01-16T02:24:53;95922.97;;;-0.54;63.51
41334;BME280;27078;46.428;6.256;2024-01-16T02:27:19;95917.53;;;-0.54;63.20
41334;BME280;27078;46.428;6.256;2024-01-16T02:29:44;95911.22;;;-0.54;63.29
41334;BME280;27078;46.428;6.256;2024-01-16T02:32:12;95911.22;;;-0.54;63.82
41334;BME280;27078;46.428;6.256;2024-01-16T02:34:37;95917.53;;;-0.54;63.40
41334;BME280;27078;46.428;6.256;2024-01-16T02:37:03;95911.22;;;-0.54;63.41
41334;BME280;27078;46.428;6.256;2024-01-16T02:39:29;95911.81;;;-0.52;63.22
41334;BME280;27078;46.428;6.256;2024-01-16T02:41:54;95907.75;;;-0.50;62.80
41334;BME280;27078;46.428;6.256;2024-01-16T02:44:20;95907.47;;;-0.48;62.99
41334;BME280;27078;46.428;6.256;2024-01-16T02:46:45;95906.94;;;-0.50;62.56
41334;BME280;27078;46.428;6.256;2024-01-16T02:49:10;95914.34;;;-0.45;62.99
41334;BME280;27078;46.428;6.256;2024-01-16T02:51:36;95907.81;;;-0.44;63.06
41334;BME280;27078;46.428;6.256;2024-01-16T02:54:01;95913.25;;;-0.44;62.81
41334;BME280;27078;46.428;6.256;2024-01-16T02:56:26;95907.75;;;-0.50;63.34
41334;BME280;27078;46.428;6.256;2024-01-16T02:58:52;95917.88;;;-0.45;63.23
41334;BME280;27078;46.428;6.256;2024-01-16T03:01:17;95912.94;;;-0.48;63.04
41334;BME280;27078;46.428;6.256;2024-01-16T03:03:43;95916.56;;;-0.42;62.80
41334;BME280;27078;46.428;6.256;2024-01-16T03:06:08;95905.38;;;-0.41;63.10
41334;BME280;27078;46.428;6.256;2024-01-16T03:08:33;95911.13;;;-0.42;63.14
41334;BME280;27078;46.428;6.256;2024-01-16T03:10:59;95903.13;;;-0.49;62.87
41334;BME280;27078;46.428;6.256;2024-01-16T03:13:24;95902.94;;;-0.42;63.09
41334;BME280;27078;46.428;6.256;2024-01-16T03:15:49;95898.06;;;-0.40;63.34
41334;BME280;27078;46.428;6.256;2024-01-16T03:18:15;95895.84;;;-0.43;62.96
41334;BME280;27078;46.428;6.256;2024-01-16T03:20:42;95889.22;;;-0.48;63.03
41334;BME280;27078;46.428;6.256;2024-01-16T03:23:07;95900.66;;;-0.51;63.54
41334;BME280;27078;46.428;6.256;2024-01-16T03:25:33;95896.53;;;-0.53;63.65
41334;BME280;27078;46.428;6.256;2024-01-16T03:28:04;95908.00;;;-0.51;63.46
41334;BME280;27078;46.428;6.256;2024-01-16T03:30:29;95909.38;;;-0.49;63.63
41334;BME280;27078;46.428;6.256;2024-01-16T03:32:54;95907.75;;;-0.50;63.91
41334;BME280;27078;46.428;6.256;2024-01-16T03:35:20;95906.66;;;-0.49;63.39
41334;BME280;27078;46.428;6.256;2024-01-16T03:37:45;95903.16;;;-0.44;63.47
41334;BME280;27078;46.428;6.256;2024-01-16T03:40:11;95897.47;;;-0.42;63.22
41334;BME280;27078;46.428;6.256;2024-01-16T03:42:37;95892.84;;;-0.42;63.52
41334;BME280;27078;46.428;6.256;2024-01-16T03:45:03;95897.78;;;-0.39;63.48
41334;BME280;27078;46.428;6.256;2024-01-16T03:47:28;95890.94;;;-0.41;63.72
41334;BME280;27078;46.428;6.256;2024-01-16T03:49:53;95885.56;;;-0.36;63.55
41334;BME280;27078;46.428;6.256;2024-01-16T03:52:19;95881.75;;;-0.35;63.45
41334;BME280;27078;46.428;6.256;2024-01-16T03:54:44;95891.03;;;-0.36;63.25
41334;BME280;27078;46.428;6.256;2024-01-16T03:57:10;95884.75;;;-0.37;63.58
41334;BME280;27078;46.428;6.256;2024-01-16T03:59:37;95870.84;;;-0.35;63.28
41334;BME280;27078;46.428;6.256;2024-01-16T04:02:03;95869.84;;;-0.29;63.14
41334;BME280;27078;46.428;6.256;2024-01-16T04:04:28;95867.03;;;-0.34;63.50
41334;BME280;27078;46.428;6.256;2024-01-16T04:06:53;95851.16;;;-0.37;63.45
41334;BME280;27078;46.428;6.256;2024-01-16T04:09:19;95861.84;;;-0.36;63.81
41334;BME280;27078;46.428;6.256;2024-01-16T04:11:44;95866.41;;;-0.41;63.72
41334;BME280;27078;46.428;6.256;2024-01-16T04:14:10;95868.56;;;-0.43;64.04
41334;BME280;27078;46.428;6.256;2024-01-16T04:16:35;95859.31;;;-0.42;64.07
41334;BME280;27078;46.428;6.256;2024-01-16T04:19:00;95861.22;;;-0.43;63.96
41334;BME280;27078;46.428;6.256;2024-01-16T04:21:26;95853.78;;;-0.48;64.07
41334;BME280;27078;46.428;6.256;2024-01-16T04:23:51;95849.50;;;-0.43;64.19
41334;BME280;27078;46.428;6.256;2024-01-16T04:26:17;95853.84;;;-0.42;63.96
41334;BME280;27078;46.428;6.256;2024-01-16T04:28:42;95850.63;;;-0.39;63.88
41334;BME280;27078;46.428;6.256;2024-01-16T04:31:08;95854.47;;;-0.35;63.78
41334;BME280;27078;46.428;6.256;2024-01-16T04:33:34;95844.16;;;-0.33;63.69
41334;BME280;27078;46.428;6.256;2024-01-16T04:36:00;95845.78;;;-0.32;63.89
41334;BME280;27078;46.428;6.256;2024-01-16T04:38:25;95846.31;;;-0.35;63.89
41334;BME280;27078;46.428;6.256;2024-01-16T04:40:50;95856.91;;;-0.39;63.56
41334;BME280;27078;46.428;6.256;2024-01-16T04:43:16;95843.25;;;-0.39;63.47
41334;BME280;27078;46.428;6.256;2024-01-16T04:45:41;95850.03;;;-0.41;63.47
41334;BME280;27078;46.428;6.256;2024-01-16T04:48:06;95846.25;;;-0.40;63.90
41334;BME280;27078;46.428;6.256;2024-01-16T04:50:34;95841.31;;;-0.43;64.14
41334;BME280;27078;46.428;6.256;2024-01-16T04:52:59;95843.19;;;-0.44;64.10
41334;BME280;27078;46.428;6.256;2024-01-16T04:55:26;95852.22;;;-0.43;64.17
41334;BME280;27078;46.428;6.256;2024-01-16T04:57:52;95844.03;;;-0.43;64.18
41334;BME280;27078;46.428;6.256;2024-01-16T05:00:17;95839.41;;;-0.43;64.46
41334;BME280;27078;46.428;6.256;2024-01-16T05:02:43;95831.47;;;-0.44;64.62
41334;BME280;27078;46.428;6.256;2024-01-16T05:05:08;95834.19;;;-0.44;64.42
41334;BME280;27078;46.428;6.256;2024-01-16T05:07:33;95830.59;;;-0.50;64.77
41334;BME280;27078;46.428;6.256;2024-01-16T05:10:00;95833.56;;;-0.52;64.59
41334;BME280;27078;46.428;6.256;2024-01-16T05:12:26;95825.38;;;-0.52;64.88
41334;BME280;27078;46.428;6.256;2024-01-16T05:14:51;95828.06;;;-0.57;65.11
41334;BME280;27078;46.428;6.256;2024-01-16T05:17:16;95826.16;;;-0.56;65.29
41334;BME280;27078;46.428;6.256;2024-01-16T05:19:42;95823.97;;;-0.54;65.17
41334;BME280;27078;46.428;6.256;2024-01-16T05:22:07;95816.06;;;-0.56;65.55
41334;BME280;27078;46.428;6.256;2024-01-16T05:24:32;95827.28;;;-0.52;65.24
41334;BME280;27078;46.428;6.256;2024-01-16T05:26:58;95822.09;;;-0.54;65.44
41334;BME280;27078;46.428;6.256;2024-01-16T05:29:23;95822.09;;;-0.54;65.10
41334;BME280;27078;46.428;6.256;2024-01-16T05:31:49;95811.75;;;-0.52;65.13
41334;BME280;27078;46.428;6.256;2024-01-16T05:34:14;95817.47;;;-0.53;65.17
41334;BME280;27078;46.428;6.256;2024-01-16T05:36:40;95810.44;;;-0.49;64.90
41334;BME280;27078;46.428;6.256;2024-01-16T05:39:06;95823.78;;;-0.48;64.49
41334;BME280;27078;46.428;6.256;2024-01-16T05:41:33;95810.75;;;-0.45;64.84
41334;BME280;27078;46.428;6.256;2024-01-16T05:43:59;95821.13;;;-0.42;64.70
41334;BME280;27078;46.428;6.256;2024-01-16T05:46:25;95808.91;;;-0.40;64.52
41334;BME280;27078;46.428;6.256;2024-01-16T05:48:51;95811.88;;;-0.41;64.56
41334;BME280;27078;46.428;6.256;2024-01-16T05:51:16;95812.38;;;-0.44;64.76
41334;BME280;27078;46.428;6.256;2024-01-16T05:53:42;95813.19;;;-0.44;64.73
41334;BME280;27078;46.428;6.256;2024-01-16T05:56:07;95815.09;;;-0.44;64.64
41334;BME280;27078;46.428;6.256;2024-01-16T05:58:33;95809.09;;;-0.46;64.72
41334;BME280;27078;46.428;6.256;2024-01-16T06:01:04;95813.47;;;-0.45;65.07
41334;BME280;27078;46.428;6.256;2024-01-16T06:03:29;95820.56;;;-0.44;65.22
41334;BME280;27078;46.428;6.256;2024-01-16T06:05:55;95807.75;;;-0.44;64.50
41334;BME280;27078;46.428;6.256;2024-01-16T06:08:20;95808.84;;;-0.45;64.87
41334;BME280;27078;46.428;6.256;2024-01-16T06:10:45;95806.38;;;-0.46;65.31
41334;BME280;27078;46.428;6.256;2024-01-16T06:13:11;95811.31;;;-0.43;65.20
41334;BME280;27078;46.428;6.256;2024-01-16T06:15:37;95813.78;;;-0.42;65.19
41334;BME280;27078;46.428;6.256;2024-01-16T06:18:02;95817.31;;;-0.41;65.20
41334;BME280;27078;46.428;6.256;2024-01-16T06:20:28;95805.88;;;-0.43;65.29
41334;BME280;27078;46.428;6.256;2024-01-16T06:22:54;95809.72;;;-0.39;65.13
41334;BME280;27078;46.428;6.256;2024-01-16T06:25:19;95813.00;;;-0.37;65.08
41334;BME280;27078;46.428;6.256;2024-01-16T06:27:45;95814.66;;;-0.36;64.96
41334;BME280;27078;46.428;6.256;2024-01-16T06:30:11;95820.66;;;-0.34;65.09
41334;BME280;27078;46.428;6.256;2024-01-16T06:32:36;95817.94;;;-0.34;65.02
41334;BME280;27078;46.428;6.256;2024-01-16T06:35:02;95804.31;;;-0.34;65.13
41334;BME280;27078;46.428;6.256;2024-01-16T06:37:27;95806.28;;;-0.30;65.32
41334;BME280;27078;46.428;6.256;2024-01-16T06:39:53;95806.53;;;-0.31;65.22
41334;BME280;27078;46.428;6.256;2024-01-16T06:42:18;95803.81;;;-0.31;65.04
41334;BME280;27078;46.428;6.256;2024-01-16T06:44:44;95811.97;;;-0.31;64.98
41334;BME280;27078;46.428;6.256;2024-01-16T06:47:10;95812.81;;;-0.31;65.28
41334;BME280;27078;46.428;6.256;2024-01-16T06:49:35;95809.84;;;-0.29;64.88
41334;BME280;27078;46.428;6.256;2024-01-16T06:52:01;95814.47;;;-0.30;65.15
41334;BME280;27078;46.428;6.256;2024-01-16T06:54:26;95814.97;;;-0.33;65.13
41334;BME280;27078;46.428;6.256;2024-01-16T06:56:51;95806.22;;;-0.35;65.74
41334;BME280;27078;46.428;6.256;2024-01-16T06:59:17;95816.00;;;-0.39;65.61
41334;BME280;27078;46.428;6.256;2024-01-16T07:01:44;95814.59;;;-0.41;65.57
41334;BME280;27078;46.428;6.256;2024-01-16T07:04:09;95811.06;;;-0.42;66.01
41334;BME280;27078;46.428;6.256;2024-01-16T07:06:35;95809.66;;;-0.44;65.71
41334;BME280;27078;46.428;6.256;2024-01-16T07:09:00;95821.66;;;-0.45;66.01
41334;BME280;27078;46.428;6.256;2024-01-16T07:11:25;95821.66;;;-0.45;65.68
41334;BME280;27078;46.428;6.256;2024-01-16T07:13:51;95821.66;;;-0.45;65.91
41334;BME280;27078;46.428;6.256;2024-01-16T07:16:16;95818.88;;;-0.51;66.19
41334;BME280;27078;46.428;6.256;2024-01-16T07:18:41;95815.00;;;-0.55;65.99
41334;BME280;27078;46.428;6.256;2024-01-16T07:21:17;95812.44;;;-0.61;66.71
41334;BME280;27078;46.428;6.256;2024-01-16T07:23:43;95798.78;;;-0.66;66.82
41334;BME280;27078;46.428;6.256;2024-01-16T07:26:08;95806.66;;;-0.70;66.92
41334;BME280;27078;46.428;6.256;2024-01-16T07:28:33;95812.09;;;-0.70;66.78
41334;BME280;27078;46.428;6.256;2024-01-16T07:30:59;95820.19;;;-0.75;67.10
41334;BME280;27078;46.428;6.256;2024-01-16T07:33:24;95820.81;;;-0.68;70.05
41334;BME280;27078;46.428;6.256;2024-01-16T07:35:49;95824.75;;;-0.59;67.38
41334;BME280;27078;46.428;6.256;2024-01-16T07:38:15;95823.53;;;-0.68;67.36
41334;BME280;27078;46.428;6.256;2024-01-16T07:40:40;95830.03;;;-0.74;67.44
41334;BME280;27078;46.428;6.256;2024-01-16T07:43:05;95823.81;;;-0.69;68.52
41334;BME280;27078;46.428;6.256;2024-01-16T07:45:31;95831.28;;;-0.60;67.88
41334;BME280;27078;46.428;6.256;2024-01-16T07:47:56;95842.69;;;-0.63;67.41
41334;BME280;27078;46.428;6.256;2024-01-16T07:50:21;95845.66;;;-0.64;67.73
41334;BME280;27078;46.428;6.256;2024-01-16T07:52:47;95843.72;;;-0.69;67.67
41334;BME280;27078;46.428;6.256;2024-01-16T07:55:12;95842.63;;;-0.68;67.49
41334;BME280;27078;46.428;6.256;2024-01-16T07:57:37;95841.56;;;-0.67;67.35
41334;BME280;27078;46.428;6.256;2024-01-16T08:00:03;95845.44;;;-0.63;67.64
41334;BME280;27078;46.428;6.256;2024-01-16T08:02:32;95849.28;;;-0.59;66.88
41334;BME280;27078;46.428;6.256;2024-01-16T08:04:59;95844.97;;;-0.55;67.17
41334;BME280;27078;46.428;6.256;2024-01-16T08:07:24;95834.66;;;-0.53;67.04
41334;BME280;27078;46.428;6.256;2024-01-16T08:09:49;95845.59;;;-0.48;67.10
41334;BME280;27078;46.428;6.256;2024-01-16T08:12:15;95851.72;;;-0.40;66.90
41334;BME280;27078;46.428;6.256;2024-01-16T08:14:40;95850.16;;;-0.31;66.73
41334;BME280;27078;46.428;6.256;2024-01-16T08:17:06;95855.09;;;-0.28;66.46
41334;BME280;27078;46.428;6.256;2024-01-16T08:19:32;95858.47;;;-0.21;66.01
41334;BME280;27078;46.428;6.256;2024-01-16T08:21:58;95860.97;;;-0.14;66.09
41334;BME280;27078;46.428;6.256;2024-01-16T08:24:23;95852.88;;;-0.09;65.78
41334;BME280;27078;46.428;6.256;2024-01-16T08:26:49;95856.47;;;-0.04;65.76
41334;BME280;27078;46.428;6.256;2024-01-16T08:29:15;95856.56;;;0.07;65.34
41334;BME280;27078;46.428;6.256;2024-01-16T08:31:40;95856.66;;;0.17;65.18
41334;BME280;27078;46.428;6.256;2024-01-16T08:34:06;95847.75;;;0.27;64.71
41334;BME280;27078;46.428;6.256;2024-01-16T08:36:31;95845.41;;;0.40;64.73
41334;BME280;27078;46.428;6.256;2024-01-16T08:38:56;95849.03;;;0.46;64.23
41334;BME280;27078;46.428;6.256;2024-01-16T08:41:22;95839.81;;;0.57;64.59
41334;BME280;27078;46.428;6.256;2024-01-16T08:43:47;95830.34;;;0.65;63.94
41334;BME280;27078;46.428;6.256;2024-01-16T08:46:13;95834.44;;;0.67;63.54
41334;BME280;27078;46.428;6.256;2024-01-16T08:48:38;95836.41;;;0.72;63.73
41334;BME280;27078;46.428;6.256;2024-01-16T08:51:07;95834.44;;;0.67;63.84
41334;BME280;27078;46.428;6.256;2024-01-16T08:53:33;95849.47;;;0.65;63.99
41334;BME280;27078;46.428;6.256;2024-01-16T08:55:59;95857.97;;;0.68;64.15
41334;BME280;27078;46.428;6.256;2024-01-16T08:58:25;95865.34;;;0.68;64.34
41334;BME280;27078;46.428;6.256;2024-01-16T09:00:50;95861.00;;;0.72;64.50
41334;BME280;27078;46.428;6.256;2024-01-16T09:03:15;95861.84;;;0.78;64.56
41334;BME280;27078;46.428;6.256;2024-01-16T09:05:42;95847.94;;;0.79;66.45
41334;BME280;27078;46.428;6.256;2024-01-16T09:08:08;95841.19;;;0.92;65.93
41334;BME280;27078;46.428;6.256;2024-01-16T09:10:33;95840.75;;;1.10;65.18
41334;BME280;27078;46.428;6.256;2024-01-16T09:12:59;95846.78;;;1.12;65.02
41334;BME280;27078;46.428;6.256;2024-01-16T09:15:24;95847.38;;;1.20;65.64
41334;BME280;27078;46.428;6.256;2024-01-16T09:17:50;95843.53;;;1.15;65.34
41334;BME280;27078;46.428;6.256;2024-01-16T09:20:15;95838.06;;;1.15;65.59
41334;BME280;27078;46.428;6.256;2024-01-16T09:22:40;95849.81;;;1.21;67.24
41334;BME280;27078;46.428;6.256;2024-01-16T09:25:06;95849.13;;;1.41;66.65
41334;BME280;27078;46.428;6.256;2024-01-16T09:27:32;95846.97;;;1.48;65.62
41334;BME280;27078;46.428;6.256;2024-01-16T09:29:57;95841.00;;;1.61;65.94
41334;BME280;27078;46.428;6.256;2024-01-16T09:32:22;95846.53;;;1.77;68.27
41334;BME280;27078;46.428;6.256;2024-01-16T09:34:48;95850.13;;;1.87;68.62
41334;BME280;27078;46.428;6.256;2024-01-16T09:37:14;95847.72;;;1.96;66.84
41334;BME280;27078;46.428;6.256;2024-01-16T09:39:40;95847.97;;;1.95;65.46
41334;BME280;27078;46.428;6.256;2024-01-16T09:42:06;95848.53;;;1.97;66.64
41334;BME280;27078;46.428;6.256;2024-01-16T09:44:32;95858.38;;;1.98;65.22
41334;BME280;27078;46.428;6.256;2024-01-16T09:47:01;95864.13;;;2.01;65.65
41334;BME280;27078;46.428;6.256;2024-01-16T09:49:27;95861.69;;;2.10;66.42
41334;BME280;27078;46.428;6.256;2024-01-16T09:51:52;95860.88;;;2.09;66.50
41334;BME280;27078;46.428;6.256;2024-01-16T09:54:18;95862.81;;;2.24;66.82
41334;BME280;27078;46.428;6.256;2024-01-16T09:56:44;95856.25;;;2.35;66.13
41334;BME280;27078;46.428;6.256;2024-01-16T09:59:12;95851.63;;;2.56;65.66
41334;BME280;27078;46.428;6.256;2024-01-16T10:01:40;95839.03;;;2.71;65.10
41334;BME280;27078;46.428;6.256;2024-01-16T10:04:06;95835.19;;;2.82;62.11
41334;BME280;27078;46.428;6.256;2024-01-16T10:06:33;95848.63;;;2.94;63.03
41334;BME280;27078;46.428;6.256;2024-01-16T10:08:59;95844.75;;;3.00;63.69
41334;BME280;27078;46.428;6.256;2024-01-16T10:11:24;95848.84;;;3.13;64.56
41334;BME280;27078;46.428;6.256;2024-01-16T10:13:49;95849.41;;;3.15;63.16
41334;BME280;27078;46.428;6.256;2024-01-16T10:16:15;95841.44;;;3.23;62.25
41334;BME280;27078;46.428;6.256;2024-01-16T10:18:40;95839.78;;;3.33;62.05
41334;BME280;27078;46.428;6.256;2024-01-16T10:21:20;95833.16;;;3.44;61.56
41334;BME280;27078;46.428;6.256;2024-01-16T10:23:46;95844.63;;;3.56;61.51
41334;BME280;27078;46.428;6.256;2024-01-16T10:26:12;95833.56;;;3.82;61.39
41334;BME280;27078;46.428;6.256;2024-01-16T10:28:41;95828.00;;;3.97;59.89
41334;BME280;27078;46.428;6.256;2024-01-16T10:33:34;95820.88;;;4.40;60.03
41334;BME280;27078;46.428;6.256;2024-01-16T10:36:16;95815.78;;;4.63;58.31
41334;BME280;27078;46.428;6.256;2024-01-16T10:38:44;95809.41;;;4.67;57.78
41334;BME280;27078;46.428;6.256;2024-01-16T10:41:11;95806.63;;;4.72;58.69
41334;BME280;27078;46.428;6.256;2024-01-16T10:43:37;95802.19;;;4.77;56.99
41334;BME280;27078;46.428;6.256;2024-01-16T10:46:15;95801.53;;;4.85;58.60
41334;BME280;27078;46.428;6.256;2024-01-16T10:48:43;95794.44;;;4.79;59.07
41334;BME280;27078;46.428;6.256;2024-01-16T10:51:14;95800.94;;;4.59;56.44
41334;BME280;27078;46.428;6.256;2024-01-16T10:53:44;95804.06;;;4.47;59.19
41334;BME280;27078;46.428;6.256;2024-01-16T10:56:11;95804.06;;;4.47;59.46
41334;BME280;27078;46.428;6.256;2024-01-16T10:58:41;95807.03;;;4.16;58.67
41334;BME280;27078;46.428;6.256;2024-01-16T11:01:10;95805.97;;;4.07;60.78
41334;BME280;27078;46.428;6.256;2024-01-16T11:03:49;95808.19;;;4.05;60.41
41334;BME280;27078;46.428;6.256;2024-01-16T11:06:17;95793.66;;;3.99;59.04
41334;BME280;27078;46.428;6.256;2024-01-16T11:08:44;95796.38;;;4.05;60.43
41334;BME280;27078;46.428;6.256;2024-01-16T11:11:10;95796.06;;;4.11;61.20
41334;BME280;27078;46.428;6.256;2024-01-16T11:13:38;95790.09;;;4.38;61.20
41334;BME280;27078;46.428;6.256;2024-01-16T11:16:04;95788.31;;;4.58;58.35
41334;BME280;27078;46.428;6.256;2024-01-16T11:18:31;95790.78;;;4.59;56.97
41334;BME280;27078;46.428;6.256;2024-01-16T11:20:58;95787.16;;;4.64;58.63
41334;BME280;27078;46.428;6.256;2024-01-16T11:23:24;95786.34;;;4.63;58.87
41334;BME280;27078;46.428;6.256;2024-01-16T11:25:49;95786.03;;;4.65;58.96
41334;BME280;27078;46.428;6.256;2024-01-16T11:28:15;95777.56;;;4.61;57.39
41334;BME280;27078;46.428;6.256;2024-01-16T11:30:42;95767.75;;;4.50;58.36
41334;BME280;27078;46.428;6.256;2024-01-16T11:35:57;95777.22;;;4.39;58.64
41334;BME280;27078;46.428;6.256;2024-01-16T11:38:24;95762.94;;;4.32;57.08
41334;BME280;27078;46.428;6.256;2024-01-16T11:40:55;95766.31;;;4.23;58.61
41334;BME280;27078;46.428;6.256;2024-01-16T11:45:58;95771.41;;;4.01;58.07
41334;BME280;27078;46.428;6.256;2024-01-16T11:48:24;95771.38;;;4.06;60.67
41334;BME280;27078;46.428;6.256;2024-01-16T11:50:50;95778.38;;;4.28;58.86
41334;BME280;27078;46.428;6.256;2024-01-16T11:53:38;95766.38;;;4.53;59.19
41334;BME280;27078;46.428;6.256;2024-01-16T11:59:14;95743.66;;;4.71;55.60
41334;BME280;27078;46.428;6.256;2024-01-16T12:01:45;95733.97;;;4.79;59.12
41334;BME280;27078;46.428;6.256;2024-01-16T12:04:10;95715.69;;;4.93;59.12
41334;BME280;27078;46.428;6.256;2024-01-16T12:06:36;95724.75;;;5.17;61.67
41334;BME280;27078;46.428;6.256;2024-01-16T12:09:15;95721.34;;;5.50;61.04
41334;BME280;27078;46.428;6.256;2024-01-16T12:11:41;95703.38;;;5.76;59.09
41334;BME280;27078;46.428;6.256;2024-01-16T12:14:09;95701.09;;;6.02;57.45
41334;BME280;27078;46.428;6.256;2024-01-16T12:16:36;95701.31;;;6.06;54.32
41334;BME280;27078;46.428;6.256;2024-01-16T12:19:08;95706.66;;;6.16;55.45
41334;BME280;27078;46.428;6.256;2024-01-16T12:21:41;95703.09;;;5.97;54.87
41334;BME280;27078;46.428;6.256;2024-01-16T12:24:07;95699.13;;;5.65;54.45
41334;BME280;27078;46.428;6.256;2024-01-16T12:26:32;95698.28;;;5.45;55.32
41334;BME280;27078;46.428;6.256;2024-01-16T12:28:58;95689.50;;;5.43;57.27
41334;BME280;27078;46.428;6.256;2024-01-16T12:31:23;95683.06;;;5.29;56.29
41334;BME280;27078;46.428;6.256;2024-01-16T12:33:50;95677.34;;;5.02;57.15
41334;BME280;27078;46.428;6.256;2024-01-16T12:36:16;95677.69;;;4.95;57.48
41334;BME280;27078;46.428;6.256;2024-01-16T12:38:42;95669.53;;;4.90;60.03
41334;BME280;27078;46.428;6.256;2024-01-16T12:41:10;95665.88;;;4.70;58.02
41334;BME280;27078;46.428;6.256;2024-01-16T12:43:35;95663.84;;;4.52;59.26
41334;BME280;27078;46.428;6.256;2024-01-16T12:46:02;95651.22;;;4.51;61.39
41334;BME280;27078;46.428;6.256;2024-01-16T12:48:27;95655.09;;;4.50;59.31
41334;BME280;27078;46.428;6.256;2024-01-16T12:51:00;95649.53;;;4.55;59.60
41334;BME280;27078;46.428;6.256;2024-01-16T12:53:29;95641.75;;;4.62;59.54
41334;BME280;27078;46.428;6.256;2024-01-16T12:56:01;95632.44;;;4.63;59.64
41334;BME280;27078;46.428;6.256;2024-01-16T12:58:35;95638.16;;;4.91;62.79
41334;BME280;27078;46.428;6.256;2024-01-16T13:01:25;95629.25;;;4.99;60.70
41334;BME280;27078;46.428;6.256;2024-01-16T13:03:51;95617.38;;;5.22;60.87
41334;BME280;27078;46.428;6.256;2024-01-16T13:06:22;95614.22;;;5.34;58.75
41334;BME280;27078;46.428;6.256;2024-01-16T13:09:04;95609.84;;;5.52;59.49
41334;BME280;27078;46.428;6.256;2024-01-16T13:11:50;95602.16;;;5.49;57.73